Time,TemperatureF,DewpointF,PressureIn,WindDirection,WindDirectionDegrees,WindSpeedMPH,WindSpeedGustMPH,Humidity,HourlyPrecipIn,Conditions,Clouds,dailyrainin,SoftwareType,DateUTC
2013-03-21 00:12:00,38.9,28.0,30.03,SE,145,3.0,4.0,65,0.00,,,0.00,weatherlink.com 1.10,2013-03-21 06:12:00,
2013-03-21 00:27:00,38.6,28.0,30.02,SE,145,3.0,3.0,65,0.00,,,0.00,weatherlink.com 1.10,2013-03-21 06:27:00,
2013-03-21 00:42:00,38.7,28.0,30.02,SE,126,2.0,5.0,65,0.00,,,0.00,weatherlink.com 1.10,2013-03-21 06:42:00,
2013-03-21 00:57:00,39.0,27.0,30.01,SSW,205,0.0,6.0,62,0.00,,,0.00,weatherlink.com 1.10,2013-03-21 06:57:00,
2013-03-21 01:12:00,39.1,27.0,30.01,SSW,201,7.0,7.0,63,0.00,,,0.00,weatherlink.com 1.10,2013-03-21 07:12:00,
2013-03-21 01:27:00,39.3,27.0,30.00,SE,145,0.0,3.0,62,0.00,,,0.00,weatherlink.com 1.10,2013-03-21 07:27:00,
2013-03-21 01:42:00,39.3,27.0,30.00,SSW,198,3.0,14.0,62,0.00,,,0.00,weatherlink.com 1.10,2013-03-21 07:42:00,
2013-03-21 01:57:00,40.1,28.0,30.00,SW,224,8.0,10.0,62,0.00,,,0.00,weatherlink.com 1.10,2013-03-21 07:57:00,
2013-03-21 02:12:00,40.4,28.0,30.00,SSW,205,6.0,16.0,61,0.00,,,0.00,weatherlink.com 1.10,2013-03-21 08:12:00,
2013-03-21 02:27:00,39.9,29.0,30.00,WSW,242,10.0,17.0,66,0.00,,,0.00,weatherlink.com 1.10,2013-03-21 08:27:00,
2013-03-21 02:42:00,38.4,31.0,30.00,SW,232,9.0,20.0,74,0.00,,,0.00,weatherlink.com 1.10,2013-03-21 08:42:00,
2013-03-21 02:57:00,35.9,32.0,29.99,WSW,241,6.0,11.0,84,0.00,,,0.00,weatherlink.com 1.10,2013-03-21 08:57:00,
2013-03-21 03:12:00,35.3,32.0,29.98,WSW,252,5.0,11.0,87,0.00,,,0.00,weatherlink.com 1.10,2013-03-21 09:12:00,
2013-03-21 03:27:00,35.3,32.0,29.98,SSW,199,7.0,12.0,87,0.01,,,0.01,weatherlink.com 1.10,2013-03-21 09:27:00,
2013-03-21 03:42:00,35.3,32.0,29.96,SSW,194,6.0,17.0,87,0.01,,,0.01,weatherlink.com 1.10,2013-03-21 09:42:00,
2013-03-21 03:57:00,35.4,32.0,29.95,SE,141,6.0,13.0,87,0.01,,,0.01,weatherlink.com 1.10,2013-03-21 09:57:00,
2013-03-21 04:13:00,34.7,32.0,29.95,ESE,107,4.0,8.0,89,0.01,,,0.01,weatherlink.com 1.10,2013-03-21 10:13:00,
2013-03-21 04:28:00,34.4,32.0,29.93,SSW,202,4.0,12.0,90,0.00,,,0.01,weatherlink.com 1.10,2013-03-21 10:28:00,
2013-03-21 04:43:00,34.3,32.0,29.92,ENE,59,5.0,8.0,90,0.00,,,0.01,weatherlink.com 1.10,2013-03-21 10:43:00,
2013-03-21 04:58:00,34.8,32.0,29.94,ESE,113,0.0,7.0,88,0.00,,,0.01,weatherlink.com 1.10,2013-03-21 10:58:00,
2013-03-21 05:13:00,36.5,31.0,29.94,WSW,244,8.0,14.0,81,0.00,,,0.01,weatherlink.com 1.10,2013-03-21 11:13:00,
2013-03-21 05:28:00,36.6,31.0,29.94,SSE,154,4.0,8.0,81,0.00,,,0.01,weatherlink.com 1.10,2013-03-21 11:28:00,
2013-03-21 05:43:00,36.4,32.0,29.94,SSE,161,0.0,1.0,83,0.00,,,0.01,weatherlink.com 1.10,2013-03-21 11:43:00,
2013-03-21 05:58:00,36.2,31.0,29.94,WNW,289,4.0,11.0,81,0.00,,,0.01,weatherlink.com 1.10,2013-03-21 11:58:00,
2013-03-21 06:13:00,36.3,31.0,29.95,West,260,2.0,8.0,82,0.00,,,0.01,weatherlink.com 1.10,2013-03-21 12:13:00,
2013-03-21 06:28:00,35.9,32.0,29.96,WSW,257,3.0,7.0,85,0.00,,,0.01,weatherlink.com 1.10,2013-03-21 12:28:00,
2013-03-21 06:43:00,35.3,32.0,29.96,SW,234,0.0,0.0,87,0.01,,,0.02,weatherlink.com 1.10,2013-03-21 12:43:00,
2013-03-21 06:58:00,34.7,32.0,29.96,West,273,0.0,5.0,88,0.01,,,0.02,weatherlink.com 1.10,2013-03-21 12:58:00,
2013-03-21 07:13:00,34.2,31.0,29.96,West,271,0.0,3.0,89,0.01,,,0.02,weatherlink.com 1.10,2013-03-21 13:13:00,
2013-03-21 07:28:00,33.7,31.0,29.95,SSW,200,3.0,10.0,89,0.01,,,0.02,weatherlink.com 1.10,2013-03-21 13:28:00,
2013-03-21 07:43:00,33.5,31.0,29.95,SSE,153,5.0,11.0,89,0.00,,,0.02,weatherlink.com 1.10,2013-03-21 13:43:00,
2013-03-21 07:58:00,33.6,31.0,29.94,SSE,163,4.0,11.0,89,0.00,,,0.02,weatherlink.com 1.10,2013-03-21 13:58:00,
2013-03-21 08:13:00,33.3,31.0,29.94,South,169,6.0,8.0,91,0.00,,,0.02,weatherlink.com 1.10,2013-03-21 14:13:00,
2013-03-21 08:28:00,33.4,31.0,29.93,South,185,4.0,5.0,90,0.00,,,0.02,weatherlink.com 1.10,2013-03-21 14:28:00,
2013-03-21 08:43:00,33.5,31.0,29.93,South,172,0.0,3.0,90,0.00,,,0.02,weatherlink.com 1.10,2013-03-21 14:43:00,
2013-03-21 08:58:00,33.7,31.0,29.93,South,172,0.0,0.0,91,0.00,,,0.02,weatherlink.com 1.10,2013-03-21 14:58:00,
2013-03-21 09:13:00,35.1,33.0,29.92,SSE,147,0.0,6.0,92,0.00,,,0.02,weatherlink.com 1.10,2013-03-21 15:13:00,
2013-03-21 09:28:00,37.9,33.0,29.92,ESE,103,0.0,9.0,82,0.01,,,0.03,weatherlink.com 1.10,2013-03-21 15:28:00,
2013-03-21 09:43:00,39.6,33.0,29.91,South,172,2.0,10.0,76,0.01,,,0.03,weatherlink.com 1.10,2013-03-21 15:43:00,
2013-03-21 09:58:00,41.0,34.0,29.91,ESE,102,1.0,7.0,76,0.01,,,0.03,weatherlink.com 1.10,2013-03-21 15:58:00,
2013-03-21 10:13:00,43.5,33.0,29.90,West,260,0.0,6.0,66,0.01,,,0.03,weatherlink.com 1.10,2013-03-21 16:13:00,
2013-03-21 10:28:00,43.7,31.0,29.90,SW,221,8.0,18.0,62,0.01,,,0.04,weatherlink.com 1.10,2013-03-21 16:28:00,
2013-03-21 10:43:00,44.8,30.0,29.89,SW,232,14.0,19.0,56,0.01,,,0.04,weatherlink.com 1.10,2013-03-21 16:43:00,
2013-03-21 10:58:00,43.4,29.0,29.89,West,269,8.0,18.0,58,0.01,,,0.04,weatherlink.com 1.10,2013-03-21 16:58:00,
2013-03-21 11:13:00,43.6,27.0,29.89,WSW,252,14.0,18.0,53,0.01,,,0.04,weatherlink.com 1.10,2013-03-21 17:13:00,
2013-03-21 11:28:00,43.5,28.0,29.89,WSW,245,10.0,16.0,55,0.00,,,0.04,weatherlink.com 1.10,2013-03-21 17:28:00,
2013-03-21 11:43:00,45.6,24.0,29.91,West,281,19.0,38.0,42,0.00,,,0.04,weatherlink.com 1.10,2013-03-21 17:43:00,
2013-03-21 11:58:00,43.2,26.0,29.90,SW,231,11.0,29.0,52,0.00,,,0.04,weatherlink.com 1.10,2013-03-21 17:58:00,
2013-03-21 12:13:00,42.7,27.0,29.92,NW,304,12.0,25.0,54,0.00,,,0.04,weatherlink.com 1.10,2013-03-21 18:13:00,
2013-03-21 12:28:00,41.2,29.0,29.92,West,277,10.0,21.0,62,0.00,,,0.04,weatherlink.com 1.10,2013-03-21 18:28:00,
2013-03-21 12:43:00,41.5,27.0,29.93,WSW,243,11.0,29.0,56,0.00,,,0.04,weatherlink.com 1.10,2013-03-21 18:43:00,
2013-03-21 12:58:00,43.2,26.0,29.93,WNW,303,17.0,25.0,51,0.00,,,0.04,weatherlink.com 1.10,2013-03-21 18:58:00,
2013-03-21 13:13:00,42.9,25.0,29.92,WNW,295,6.0,30.0,49,0.00,,,0.04,weatherlink.com 1.10,2013-03-21 19:13:00,
2013-03-21 13:28:00,44.1,22.0,29.93,West,267,10.0,29.0,41,0.00,,,0.04,weatherlink.com 1.10,2013-03-21 19:28:00,
2013-03-21 13:43:00,44.0,22.0,29.93,WNW,298,14.0,21.0,41,0.00,,,0.04,weatherlink.com 1.10,2013-03-21 19:43:00,
2013-03-21 13:58:00,45.9,21.0,29.92,NW,310,7.0,23.0,38,0.00,,,0.04,weatherlink.com 1.10,2013-03-21 19:58:00,
2013-03-21 14:13:00,44.6,23.0,29.93,WSW,247,14.0,26.0,43,0.00,,,0.04,weatherlink.com 1.10,2013-03-21 20:13:00,
2013-03-21 14:28:00,44.1,22.0,29.93,WSW,250,13.0,23.0,41,0.00,,,0.04,weatherlink.com 1.10,2013-03-21 20:28:00,
2013-03-21 14:43:00,43.8,20.0,29.93,WNW,285,14.0,23.0,38,0.00,,,0.04,weatherlink.com 1.10,2013-03-21 20:43:00,
2013-03-21 14:58:00,45.7,21.0,29.93,West,281,18.0,27.0,37,0.00,,,0.04,weatherlink.com 1.10,2013-03-21 20:58:00,
2013-03-21 15:13:00,46.1,20.0,29.93,NNW,338,14.0,25.0,35,0.00,,,0.04,weatherlink.com 1.10,2013-03-21 21:13:00,
2013-03-21 15:28:00,45.6,20.0,29.93,West,268,14.0,23.0,36,0.00,,,0.04,weatherlink.com 1.10,2013-03-21 21:28:00,
2013-03-21 15:43:00,45.7,19.0,29.92,West,277,8.0,21.0,34,0.00,,,0.04,weatherlink.com 1.10,2013-03-21 21:43:00,
2013-03-21 15:58:00,45.6,19.0,29.93,WNW,283,14.0,18.0,34,0.00,,,0.04,weatherlink.com 1.10,2013-03-21 21:58:00,
2013-03-21 16:13:00,45.2,17.0,29.93,West,281,8.0,20.0,32,0.00,,,0.04,weatherlink.com 1.10,2013-03-21 22:13:00,
2013-03-21 16:29:00,46.3,19.0,29.94,WSW,242,8.0,17.0,34,0.00,,,0.04,weatherlink.com 1.10,2013-03-21 22:29:00,
2013-03-21 16:43:00,43.3,17.0,29.95,WNW,289,12.0,21.0,34,0.00,,,0.04,weatherlink.com 1.10,2013-03-21 22:43:00,
2013-03-21 16:59:00,43.5,17.0,29.95,SW,228,6.0,18.0,34,0.00,,,0.04,weatherlink.com 1.10,2013-03-21 22:59:00,
2013-03-21 17:13:00,44.0,14.0,29.95,WSW,251,11.0,19.0,30,0.00,,,0.04,weatherlink.com 1.10,2013-03-21 23:13:00,
2013-03-21 17:29:00,43.2,14.0,29.95,SW,229,11.0,16.0,30,0.00,,,0.04,weatherlink.com 1.10,2013-03-21 23:29:00,
2013-03-21 17:44:00,42.4,13.0,29.95,WSW,254,6.0,11.0,30,0.00,,,0.04,weatherlink.com 1.10,2013-03-21 23:44:00,
2013-03-21 17:59:00,41.5,13.0,29.96,WSW,245,1.0,9.0,31,0.00,,,0.04,weatherlink.com 1.10,2013-03-21 23:59:00,
2013-03-21 18:14:00,40.9,13.0,29.96,West,266,2.0,8.0,32,0.00,,,0.04,weatherlink.com 1.10,2013-03-22 00:14:00,
2013-03-21 18:29:00,40.2,10.0,29.97,West,275,9.0,12.0,29,0.00,,,0.04,weatherlink.com 1.10,2013-03-22 00:29:00,
2013-03-21 18:44:00,39.6,9.0,29.97,West,263,3.0,12.0,28,0.00,,,0.04,weatherlink.com 1.10,2013-03-22 00:44:00,
2013-03-21 18:59:00,39.4,7.0,29.98,West,280,4.0,9.0,26,0.00,,,0.04,weatherlink.com 1.10,2013-03-22 00:59:00,
2013-03-21 19:14:00,38.8,7.0,29.98,WNW,290,3.0,8.0,27,0.00,,,0.04,weatherlink.com 1.10,2013-03-22 01:14:00,
2013-03-21 19:29:00,38.1,11.0,29.98,WNW,290,0.0,1.0,32,0.00,,,0.04,weatherlink.com 1.10,2013-03-22 01:29:00,
2013-03-21 19:44:00,36.9,13.0,29.99,WNW,290,0.0,0.0,37,0.00,,,0.04,weatherlink.com 1.10,2013-03-22 01:44:00,
2013-03-21 19:59:00,34.4,11.0,29.99,WNW,290,0.0,4.0,38,0.00,,,0.04,weatherlink.com 1.10,2013-03-22 01:59:00,
2013-03-21 20:14:00,32.3,12.0,29.99,WNW,290,2.0,2.0,44,0.00,,,0.04,weatherlink.com 1.10,2013-03-22 02:14:00,
2013-03-21 20:29:00,30.9,11.0,29.99,WNW,290,3.0,4.0,44,0.00,,,0.04,weatherlink.com 1.10,2013-03-22 02:29:00,
2013-03-21 20:44:00,30.1,6.0,29.99,WNW,290,0.0,7.0,36,0.00,,,0.04,weatherlink.com 1.10,2013-03-22 02:44:00,
2013-03-21 20:59:00,29.9,6.0,29.99,WNW,294,1.0,5.0,37,0.00,,,0.04,weatherlink.com 1.10,2013-03-22 02:59:00,
2013-03-21 21:14:00,29.5,4.0,30.00,WNW,294,2.0,5.0,34,0.00,,,0.04,weatherlink.com 1.10,2013-03-22 03:14:00,
2013-03-21 21:29:00,29.0,8.0,30.00,WNW,294,0.0,2.0,42,0.00,,,0.04,weatherlink.com 1.10,2013-03-22 03:29:00,
2013-03-21 21:44:00,28.1,9.0,30.00,WNW,294,0.0,0.0,45,0.00,,,0.04,weatherlink.com 1.10,2013-03-22 03:44:00,
2013-03-21 21:59:00,27.1,11.0,30.00,WNW,294,0.0,0.0,51,0.00,,,0.04,weatherlink.com 1.10,2013-03-22 03:59:00,
2013-03-21 22:14:00,26.3,10.0,30.01,WNW,294,0.0,0.0,50,0.00,,,0.04,weatherlink.com 1.10,2013-03-22 04:14:00,
2013-03-21 22:29:00,25.6,11.0,30.01,WNW,294,0.0,0.0,55,0.00,,,0.04,weatherlink.com 1.10,2013-03-22 04:29:00,
2013-03-21 22:44:00,24.9,9.0,30.01,WNW,294,0.0,0.0,52,0.00,,,0.04,weatherlink.com 1.10,2013-03-22 04:44:00,
2013-03-21 22:59:00,24.3,11.0,30.01,WNW,293,0.0,0.0,58,0.00,,,0.04,weatherlink.com 1.10,2013-03-22 04:59:00,
2013-03-21 23:14:00,23.6,11.0,30.02,WNW,293,0.0,0.0,58,0.00,,,0.04,weatherlink.com 1.10,2013-03-22 05:14:00,
2013-03-21 23:29:00,23.1,10.0,30.02,West,267,0.0,0.0,58,0.00,,,0.04,weatherlink.com 1.10,2013-03-22 05:29:00,
2013-03-21 23:44:00,22.6,10.0,30.02,West,267,0.0,0.0,58,0.00,,,0.04,weatherlink.com 1.10,2013-03-22 05:44:00,
2013-03-21 23:59:00,22.4,11.0,30.02,WSW,255,3.0,4.0,62,0.00,,,0.04,weatherlink.com 1.10,2013-03-22 05:59:00,